createdAt,value
2023-04-16T00:00:27.857Z,4.15
2023-04-16T00:01:29.705Z,4.21
2023-04-16T00:02:31.654Z,4.30
2023-04-16T00:03:33.918Z,4.27
2023-04-16T00:04:36.047Z,4.28
2023-04-16T00:05:37.924Z,4.19
2023-04-16T00:06:39.877Z,3.99
2023-04-16T00:07:41.686Z,3.98
2023-04-16T00:08:43.512Z,3.93
2023-04-16T00:09:45.281Z,4.31
2023-04-16T00:10:47.076Z,4.12
2023-04-16T00:11:48.927Z,3.64
2023-04-16T00:12:50.729Z,3.74
2023-04-16T00:13:52.537Z,4.04
2023-04-16T00:14:54.336Z,3.69
2023-04-16T00:15:56.169Z,3.87
2023-04-16T00:16:58.032Z,3.94
2023-04-16T00:17:59.980Z,4.13
2023-04-16T00:19:01.784Z,3.98
2023-04-16T00:20:03.589Z,3.99
2023-04-16T00:21:05.409Z,3.83
2023-04-16T00:22:07.246Z,4.44
2023-04-16T00:23:09.054Z,4.09
2023-04-16T00:24:10.859Z,4.07
2023-04-16T00:25:12.661Z,4.46
2023-04-16T00:26:14.474Z,4.46
2023-04-16T00:27:16.321Z,4.01
2023-04-16T00:28:18.119Z,4.49
2023-04-16T00:29:19.822Z,4.33
2023-04-16T00:30:21.629Z,4.04
2023-04-16T00:31:23.486Z,4.19
2023-04-16T00:32:25.298Z,4.54
2023-04-16T00:33:27.187Z,4.30
2023-04-16T00:34:29.003Z,4.33
2023-04-16T00:35:30.818Z,4.81
2023-04-16T00:36:32.642Z,3.91
2023-04-16T00:37:34.461Z,4.45
2023-04-16T00:38:36.282Z,5.01
2023-04-16T00:39:38.078Z,4.91
2023-04-16T00:40:39.882Z,4.51
2023-04-16T00:41:42.100Z,4.91
2023-04-16T00:42:43.936Z,4.23
2023-04-16T00:43:45.752Z,4.28
2023-04-16T00:44:47.563Z,4.80
2023-04-16T00:45:49.357Z,4.63
2023-04-16T00:46:51.162Z,4.85
2023-04-16T00:47:53.047Z,4.89
2023-04-16T00:48:54.907Z,4.67
2023-04-16T00:49:56.716Z,4.90
2023-04-16T00:50:58.525Z,4.87
2023-04-16T00:52:00.320Z,4.46
2023-04-16T00:53:02.172Z,4.89
2023-04-16T00:54:03.979Z,4.44
2023-04-16T00:55:05.769Z,4.67
2023-04-16T00:56:07.676Z,4.91
2023-04-16T00:57:09.485Z,4.83
2023-04-16T00:58:11.341Z,4.34
2023-04-16T00:59:13.137Z,4.55
2023-04-16T01:00:14.949Z,4.68
2023-04-16T01:01:16.812Z,4.23
2023-04-16T01:02:18.725Z,4.82
2023-04-16T01:03:20.751Z,4.51
2023-04-16T01:04:22.897Z,4.48
2023-04-16T01:05:24.731Z,4.86
2023-04-16T01:06:26.533Z,4.69
2023-04-16T01:07:28.342Z,4.57
2023-04-16T01:08:30.241Z,4.37
2023-04-16T01:09:31.994Z,4.74
2023-04-16T01:10:33.794Z,4.82
2023-04-16T01:11:35.592Z,4.59
2023-04-16T01:12:37.398Z,5.53
2023-04-16T01:13:39.366Z,4.63
2023-04-16T01:14:41.349Z,4.72
2023-04-16T01:15:43.185Z,4.57
2023-04-16T01:16:45.067Z,4.33
2023-04-16T01:17:46.938Z,4.14
2023-04-16T01:18:48.729Z,4.99
2023-04-16T01:19:50.534Z,4.92
2023-04-16T01:20:52.336Z,4.75
2023-04-16T01:21:54.131Z,4.66
2023-04-16T01:22:55.955Z,4.60
2023-04-16T01:23:57.784Z,5.19
2023-04-16T01:24:59.605Z,4.84
2023-04-16T01:26:01.398Z,4.38
2023-04-16T01:27:03.200Z,5.12
2023-04-16T01:28:05.014Z,4.93
2023-04-16T01:29:06.914Z,4.96
2023-04-16T01:30:09.048Z,4.97
2023-04-16T01:31:10.922Z,5.53
2023-04-16T01:32:12.703Z,5.37
2023-04-16T01:33:14.474Z,4.87
2023-04-16T01:34:16.315Z,5.09
2023-04-16T01:35:18.149Z,5.13
2023-04-16T01:36:20.049Z,4.84
2023-04-16T01:37:21.841Z,5.09
2023-04-16T01:38:23.655Z,5.09
2023-04-16T01:39:25.504Z,5.03
2023-04-16T01:40:27.315Z,5.17
2023-04-16T01:41:29.114Z,5.29
2023-04-16T01:42:30.922Z,5.46
2023-04-16T01:43:32.724Z,5.47
2023-04-16T01:44:34.473Z,5.29
2023-04-16T01:45:36.296Z,5.01
2023-04-16T01:46:38.194Z,5.31
2023-04-16T01:47:40.062Z,5.15
2023-04-16T01:48:41.910Z,5.74
2023-04-16T01:49:43.759Z,4.73
2023-04-16T01:50:45.573Z,5.42
2023-04-16T01:51:47.384Z,5.18
2023-04-16T01:52:49.195Z,5.05
2023-04-16T01:53:50.997Z,5.05
2023-04-16T01:54:52.862Z,4.96
2023-04-16T01:55:54.666Z,4.98
2023-04-16T01:56:56.472Z,4.99
2023-04-16T01:57:58.267Z,5.41
2023-04-16T01:59:00.117Z,5.41
2023-04-16T02:00:01.928Z,5.10
2023-04-16T02:01:03.780Z,5.49
2023-04-16T02:02:05.601Z,4.63
2023-04-16T02:03:07.604Z,4.90
2023-04-16T02:04:09.706Z,5.00
2023-04-16T02:05:11.512Z,5.56
2023-04-16T02:06:13.462Z,4.69
2023-04-16T02:07:15.278Z,5.36
2023-04-16T02:08:17.087Z,4.90
2023-04-16T02:09:18.872Z,5.07
2023-04-16T02:10:20.707Z,5.45
2023-04-16T02:11:22.522Z,5.19
2023-04-16T02:12:24.334Z,4.78
2023-04-16T02:13:26.136Z,5.11
2023-04-16T02:14:27.922Z,5.55
2023-04-16T02:15:29.760Z,5.21
2023-04-16T02:16:31.641Z,5.11
2023-04-16T02:17:33.507Z,4.95
2023-04-16T02:18:35.278Z,4.89
2023-04-16T02:19:37.074Z,4.89
2023-04-16T02:20:38.922Z,4.83
2023-04-16T02:21:40.728Z,5.03
2023-04-16T02:22:42.541Z,5.41
2023-04-16T02:23:44.336Z,5.01
2023-04-16T02:24:46.153Z,4.66
2023-04-16T02:25:48.008Z,5.02
2023-04-16T02:26:49.817Z,5.03
2023-04-16T02:27:51.624Z,4.91
2023-04-16T02:28:53.421Z,4.89
2023-04-16T02:29:55.225Z,4.73
2023-04-16T02:30:57.057Z,5.24
2023-04-16T02:31:58.934Z,5.35
2023-04-16T02:33:00.826Z,5.15
2023-04-16T02:34:02.678Z,5.39
2023-04-16T02:35:04.481Z,4.89
2023-04-16T02:36:06.620Z,4.88
2023-04-16T02:37:08.308Z,5.16
2023-04-16T02:38:10.112Z,5.02
2023-04-16T02:39:11.904Z,4.99
2023-04-16T02:40:13.712Z,5.33
2023-04-16T02:41:15.550Z,5.00
2023-04-16T02:42:17.357Z,5.05
2023-04-16T02:43:19.157Z,4.93
2023-04-16T02:44:20.954Z,4.95
2023-04-16T02:45:22.789Z,5.23
2023-04-16T02:46:24.758Z,4.86
2023-04-16T02:47:26.795Z,4.83
2023-04-16T02:48:28.557Z,4.72
2023-04-16T02:49:30.366Z,5.11
2023-04-16T02:50:32.155Z,4.70
2023-04-16T02:51:33.989Z,5.24
2023-04-16T02:52:35.798Z,5.07
2023-04-16T02:53:37.602Z,4.65
2023-04-16T02:54:39.409Z,5.28
2023-04-16T02:55:41.206Z,5.36
2023-04-16T02:56:43.040Z,5.25
2023-04-16T02:57:44.831Z,5.05
2023-04-16T02:58:46.642Z,4.76
2023-04-16T02:59:48.438Z,5.52
2023-04-16T03:00:50.241Z,5.18
2023-04-16T03:01:52.218Z,5.12
2023-04-16T03:02:54.338Z,5.51
2023-04-16T03:03:56.330Z,4.47
2023-04-16T03:04:58.105Z,5.36
2023-04-16T03:05:59.910Z,5.59
2023-04-16T03:07:01.752Z,5.69
2023-04-16T03:08:03.558Z,5.39
2023-04-16T03:09:05.347Z,5.03
2023-04-16T03:10:07.266Z,5.06
2023-04-16T03:11:09.072Z,5.17
2023-04-16T03:12:10.911Z,5.96
2023-04-16T03:13:12.702Z,5.57
2023-04-16T03:14:14.503Z,5.97
2023-04-16T03:15:16.305Z,5.49
2023-04-16T03:16:18.142Z,5.69
2023-04-16T03:17:19.993Z,5.94
2023-04-16T03:18:21.753Z,5.42
2023-04-16T03:19:23.441Z,5.25
2023-04-16T03:20:25.263Z,5.75
2023-04-16T03:21:27.061Z,5.85
2023-04-16T03:22:28.890Z,5.61
2023-04-16T03:23:30.686Z,5.23
2023-04-16T03:24:32.484Z,5.15
2023-04-16T03:25:34.294Z,5.39
2023-04-16T03:26:36.099Z,6.20
2023-04-16T03:27:39.014Z,5.89
2023-04-16T03:28:40.817Z,6.21
2023-04-16T03:29:42.616Z,5.68
2023-04-16T03:30:44.425Z,5.39
2023-04-16T03:31:46.231Z,5.77
2023-04-16T03:32:48.130Z,5.51
2023-04-16T03:33:49.943Z,5.53
2023-04-16T03:34:51.746Z,5.51
2023-04-16T03:35:53.564Z,5.89
2023-04-16T03:36:55.369Z,6.06
2023-04-16T03:37:57.216Z,5.60
2023-04-16T03:38:59.013Z,6.60
2023-04-16T03:40:00.821Z,6.13
2023-04-16T03:41:02.641Z,6.49
2023-04-16T03:42:04.461Z,6.87
2023-04-16T03:43:06.308Z,6.38
2023-04-16T03:44:08.109Z,7.00
2023-04-16T03:45:09.903Z,6.87
2023-04-16T03:46:11.789Z,6.97
2023-04-16T03:47:13.620Z,6.49
2023-04-16T03:48:15.464Z,6.36
2023-04-16T03:49:17.263Z,7.11
2023-04-16T03:50:19.076Z,6.08
2023-04-16T03:51:20.886Z,6.67
2023-04-16T03:52:22.673Z,5.81
2023-04-16T03:53:24.514Z,5.75
2023-04-16T03:54:26.316Z,5.88
2023-04-16T03:55:28.119Z,5.73
2023-04-16T03:56:29.932Z,5.73
2023-04-16T03:57:31.724Z,5.54
2023-04-16T03:58:33.573Z,5.53
2023-04-16T03:59:35.366Z,5.67
2023-04-16T04:00:37.189Z,5.48
2023-04-16T04:01:39.020Z,5.65
2023-04-16T04:02:40.897Z,5.22
2023-04-16T04:03:43.046Z,5.45
2023-04-16T04:04:45.206Z,5.49
2023-04-16T04:05:47.029Z,5.69
2023-04-16T04:06:48.851Z,5.76
2023-04-16T04:07:50.657Z,5.72
2023-04-16T04:08:52.493Z,5.89
2023-04-16T04:09:54.280Z,6.85
2023-04-16T04:10:56.074Z,6.39
2023-04-16T04:11:57.884Z,5.90
2023-04-16T04:12:59.794Z,6.00
2023-04-16T04:14:01.509Z,5.53
2023-04-16T04:15:03.308Z,5.85
2023-04-16T04:16:05.120Z,6.19
2023-04-16T04:17:06.915Z,5.62
2023-04-16T04:18:08.725Z,5.75
2023-04-16T04:19:10.747Z,5.39
2023-04-16T04:20:13.078Z,5.77
2023-04-16T04:21:14.863Z,5.98
2023-04-16T04:22:16.673Z,5.55
2023-04-16T04:23:18.480Z,5.74
2023-04-16T04:24:20.317Z,5.16
2023-04-16T04:25:22.130Z,5.69
2023-04-16T04:26:23.965Z,5.54
2023-04-16T04:27:25.826Z,6.13
2023-04-16T04:28:27.636Z,5.31
2023-04-16T04:29:29.487Z,5.79
2023-04-16T04:30:31.272Z,5.59
2023-04-16T04:31:33.100Z,5.49
2023-04-16T04:32:34.935Z,5.75
2023-04-16T04:33:36.785Z,5.48
2023-04-16T04:34:38.639Z,5.85
2023-04-16T04:35:40.440Z,6.05
2023-04-16T04:36:42.243Z,5.77
2023-04-16T04:37:44.044Z,6.17
2023-04-16T04:38:45.858Z,5.95
2023-04-16T04:39:47.695Z,5.84
2023-04-16T04:40:49.487Z,5.54
2023-04-16T04:41:51.290Z,6.23
2023-04-16T04:42:53.101Z,6.85
2023-04-16T04:43:54.906Z,6.35
2023-04-16T04:44:56.739Z,6.86
2023-04-16T04:45:58.571Z,7.11
2023-04-16T04:47:00.443Z,6.49
2023-04-16T04:48:02.223Z,10.23
2023-04-16T04:49:04.074Z,7.29
2023-04-16T04:50:05.977Z,5.68
2023-04-16T04:51:07.781Z,5.92
2023-04-16T04:52:09.595Z,5.76
2023-04-16T04:53:11.407Z,5.95
2023-04-16T04:54:13.222Z,5.47
2023-04-16T04:55:15.072Z,5.34
2023-04-16T04:56:16.868Z,5.62
2023-04-16T04:57:18.691Z,5.57
2023-04-16T04:58:20.486Z,5.70
2023-04-16T04:59:22.300Z,5.80
2023-04-16T05:00:24.134Z,5.11
2023-04-16T05:01:25.993Z,7.28
2023-04-16T05:02:27.888Z,11.42
2023-04-16T05:03:29.829Z,11.29
2023-04-16T05:04:31.677Z,9.75
2023-04-16T05:05:33.513Z,7.42
2023-04-16T05:06:35.330Z,5.98
2023-04-16T05:07:37.135Z,7.14
2023-04-16T05:08:38.934Z,6.29
2023-04-16T05:09:40.734Z,5.42
2023-04-16T05:10:42.695Z,5.95
2023-04-16T05:11:44.501Z,5.67
2023-04-16T05:12:48.254Z,5.56
2023-04-16T05:13:49.922Z,5.71
2023-04-16T05:14:51.712Z,5.61
2023-04-16T05:15:53.776Z,5.47
2023-04-16T05:16:55.630Z,6.58
2023-04-16T05:17:57.499Z,5.07
2023-04-16T05:18:59.277Z,5.43
2023-04-16T05:20:01.091Z,20.50
2023-04-16T05:21:02.953Z,8.97
2023-04-16T05:22:04.752Z,5.71
2023-04-16T05:23:06.573Z,5.63
2023-04-16T05:24:08.390Z,5.43
2023-04-16T05:25:10.187Z,5.14
2023-04-16T05:26:12.031Z,5.41
2023-04-16T05:27:14.979Z,5.51
2023-04-16T05:28:16.744Z,5.31
2023-04-16T05:29:18.552Z,4.93
2023-04-16T05:30:20.370Z,5.52
2023-04-16T05:31:22.270Z,5.30
2023-04-16T05:32:24.124Z,5.21
2023-04-16T05:33:25.923Z,4.99
2023-04-16T05:34:27.770Z,5.27
2023-04-16T05:35:29.561Z,4.69
2023-04-16T05:36:31.399Z,5.16
2023-04-16T05:37:33.208Z,4.86
2023-04-16T05:38:35.018Z,5.42
2023-04-16T05:39:36.830Z,5.07
2023-04-16T05:40:38.649Z,5.56
2023-04-16T05:41:40.481Z,5.81
2023-04-16T05:42:42.276Z,4.70
2023-04-16T05:43:44.123Z,4.20
2023-04-16T05:44:45.938Z,4.44
2023-04-16T05:45:47.731Z,4.08
2023-04-16T05:46:49.564Z,3.65
2023-04-16T05:47:51.375Z,3.86
2023-04-16T05:48:53.203Z,4.02
2023-04-16T05:49:55.028Z,4.06
2023-04-16T05:50:56.822Z,3.91
2023-04-16T05:51:58.667Z,5.50
2023-04-16T05:53:00.477Z,5.75
2023-04-16T05:54:02.293Z,4.61
2023-04-16T05:55:04.115Z,5.03
2023-04-16T05:56:05.908Z,4.03
2023-04-16T05:57:07.746Z,4.11
2023-04-16T05:58:09.561Z,4.14
2023-04-16T05:59:11.561Z,4.99
2023-04-16T06:00:13.683Z,5.84
2023-04-16T06:01:15.493Z,3.84
2023-04-16T06:02:17.442Z,4.85
2023-04-16T06:03:19.296Z,6.05
2023-04-16T06:04:21.233Z,6.65
2023-04-16T06:05:23.123Z,6.79
2023-04-16T06:06:24.916Z,5.84
2023-04-16T06:07:26.644Z,6.40
2023-04-16T06:08:28.480Z,6.60
2023-04-16T06:09:30.192Z,6.69
2023-04-16T06:10:32.097Z,5.28
2023-04-16T06:11:35.801Z,5.13
2023-04-16T06:12:37.576Z,6.67
2023-04-16T06:13:39.460Z,5.42
2023-04-16T06:14:41.264Z,3.61
2023-04-16T06:15:43.097Z,5.20
2023-04-16T06:16:44.900Z,5.35
2023-04-16T06:17:46.762Z,5.35
2023-04-16T06:18:48.518Z,4.62
2023-04-16T06:19:50.330Z,3.93
2023-04-16T06:20:52.144Z,3.93
2023-04-16T06:21:53.960Z,5.11
2023-04-16T06:22:55.799Z,5.81
2023-04-16T06:23:57.600Z,4.42
2023-04-16T06:24:59.412Z,6.92
2023-04-16T06:26:01.221Z,6.19
2023-04-16T06:27:03.057Z,5.12
2023-04-16T06:28:04.867Z,4.51
2023-04-16T06:29:06.724Z,3.12
2023-04-16T06:30:08.600Z,3.25
2023-04-16T06:31:10.449Z,3.53
2023-04-16T06:32:12.225Z,3.55
2023-04-16T06:33:14.091Z,4.14
2023-04-16T06:34:15.913Z,4.47
2023-04-16T06:35:18.843Z,4.23
2023-04-16T06:36:20.637Z,6.86
2023-04-16T06:37:22.447Z,5.08
2023-04-16T06:38:24.286Z,6.02
2023-04-16T06:39:26.119Z,5.15
2023-04-16T06:40:27.981Z,3.83
2023-04-16T06:41:29.747Z,6.22
2023-04-16T06:42:31.536Z,4.70
2023-04-16T06:43:33.361Z,5.22
2023-04-16T06:44:35.167Z,8.22
2023-04-16T06:45:36.989Z,6.02
2023-04-16T06:46:38.822Z,5.67
2023-04-16T06:47:40.710Z,5.82
2023-04-16T06:48:42.553Z,9.99
2023-04-16T06:49:44.342Z,4.63
2023-04-16T06:50:46.148Z,4.62
2023-04-16T06:51:47.947Z,5.54
2023-04-16T06:52:49.677Z,4.63
2023-04-16T06:53:51.799Z,3.75
2023-04-16T06:54:53.505Z,3.96
2023-04-16T06:55:55.200Z,5.54
2023-04-16T06:56:57.021Z,6.14
2023-04-16T06:57:58.881Z,4.16
2023-04-16T06:59:00.735Z,4.19
2023-04-16T07:00:02.547Z,3.53
2023-04-16T07:01:04.370Z,4.44
2023-04-16T07:02:06.204Z,3.31
2023-04-16T07:03:08.348Z,3.93
2023-04-16T07:04:10.403Z,3.07
2023-04-16T07:05:12.269Z,3.71
2023-04-16T07:06:14.181Z,3.69
2023-04-16T07:07:15.966Z,3.57
2023-04-16T07:08:17.767Z,5.05
2023-04-16T07:09:19.622Z,4.11
2023-04-16T07:10:21.441Z,6.24
2023-04-16T07:11:23.253Z,7.59
2023-04-16T07:12:25.051Z,3.52
2023-04-16T07:13:26.871Z,3.79
2023-04-16T07:14:28.715Z,3.81
2023-04-16T07:15:30.511Z,4.18
2023-04-16T07:16:32.329Z,2.96
2023-04-16T07:17:34.130Z,3.52
2023-04-16T07:18:35.985Z,2.85
2023-04-16T07:19:37.811Z,2.72
2023-04-16T07:20:39.783Z,3.12
2023-04-16T07:21:41.591Z,3.61
2023-04-16T07:22:43.446Z,3.52
2023-04-16T07:23:45.234Z,5.01
2023-04-16T07:24:46.991Z,4.78
2023-04-16T07:25:48.776Z,5.48
2023-04-16T07:26:50.600Z,5.06
2023-04-16T07:27:55.424Z,4.33
2023-04-16T07:28:57.329Z,3.37
2023-04-16T07:29:59.168Z,3.97
2023-04-16T07:31:01.007Z,3.72
2023-04-16T07:32:02.883Z,3.40
2023-04-16T07:33:04.668Z,2.85
2023-04-16T07:34:06.525Z,3.78
2023-04-16T07:35:08.414Z,3.45
2023-04-16T07:36:10.603Z,3.73
2023-04-16T07:37:12.405Z,4.69
2023-04-16T07:38:14.239Z,4.41
2023-04-16T07:39:16.060Z,4.10
2023-04-16T07:40:18.021Z,4.83
2023-04-16T07:41:19.821Z,4.71
2023-04-16T07:42:21.721Z,3.87
2023-04-16T07:43:23.590Z,4.00
2023-04-16T07:44:25.412Z,4.29
2023-04-16T07:45:27.264Z,6.05
2023-04-16T07:46:39.384Z,7.78
2023-04-16T07:47:32.717Z,6.62
2023-04-16T07:48:34.519Z,4.29
2023-04-16T07:49:36.445Z,4.27
2023-04-16T07:50:38.271Z,3.14
2023-04-16T07:51:40.073Z,4.29
2023-04-16T07:52:41.877Z,3.30
2023-04-16T07:53:43.695Z,3.17
2023-04-16T07:54:45.513Z,3.34
2023-04-16T07:55:47.356Z,4.04
2023-04-16T07:56:49.167Z,4.76
2023-04-16T07:57:50.969Z,5.60
2023-04-16T07:58:52.781Z,5.91
2023-04-16T07:59:54.583Z,4.34
2023-04-16T08:00:56.489Z,4.74
2023-04-16T08:01:58.292Z,4.37
2023-04-16T08:03:00.242Z,3.89
2023-04-16T08:04:02.256Z,3.43
2023-04-16T08:05:04.237Z,3.26
2023-04-16T08:06:06.236Z,3.97
2023-04-16T08:07:08.043Z,3.41
2023-04-16T08:08:09.938Z,3.36
2023-04-16T08:09:11.871Z,3.88
2023-04-16T08:10:14.477Z,5.21
2023-04-16T08:11:16.414Z,4.22
2023-04-16T08:12:18.238Z,3.51
2023-04-16T08:13:20.034Z,3.03
2023-04-16T08:14:21.859Z,3.29
2023-04-16T08:15:23.681Z,3.09
2023-04-16T08:16:25.585Z,5.72
2023-04-16T08:17:27.362Z,4.13
2023-04-16T08:18:29.151Z,3.69
2023-04-16T08:19:30.948Z,3.73
2023-04-16T08:20:32.878Z,5.10
2023-04-16T08:21:34.707Z,5.17
2023-04-16T08:22:36.518Z,3.75
2023-04-16T08:23:38.310Z,3.39
2023-04-16T08:24:40.167Z,4.50
2023-04-16T08:25:41.867Z,4.67
2023-04-16T08:26:43.708Z,4.15
2023-04-16T08:27:45.537Z,2.67
2023-04-16T08:28:47.333Z,4.23
2023-04-16T08:29:49.172Z,3.71
2023-04-16T08:30:51.110Z,3.23
2023-04-16T08:31:53.164Z,3.09
2023-04-16T08:32:55.028Z,3.49
2023-04-16T08:33:56.807Z,4.11
2023-04-16T08:34:58.607Z,3.90
2023-04-16T08:36:00.421Z,3.87
2023-04-16T08:37:02.264Z,5.27
2023-04-16T08:38:04.079Z,4.05
2023-04-16T08:39:05.897Z,3.09
2023-04-16T08:40:07.810Z,3.71
2023-04-16T08:41:09.610Z,4.19
2023-04-16T08:42:11.455Z,5.65
2023-04-16T08:43:13.267Z,3.69
2023-04-16T08:44:15.069Z,3.69
2023-04-16T08:45:16.880Z,3.68
2023-04-16T08:46:18.694Z,3.70
2023-04-16T08:47:20.673Z,5.34
2023-04-16T08:48:22.552Z,7.19
2023-04-16T08:49:24.350Z,4.77
2023-04-16T08:50:26.169Z,5.15
2023-04-16T08:51:27.968Z,5.25
2023-04-16T08:52:29.815Z,6.38
2023-04-16T08:53:31.627Z,6.13
2023-04-16T08:54:33.462Z,5.45
2023-04-16T08:55:35.574Z,4.70
2023-04-16T08:56:37.425Z,3.11
2023-04-16T08:57:39.227Z,2.82
2023-04-16T08:58:41.029Z,4.48
2023-04-16T08:59:42.830Z,4.43
2023-04-16T09:00:44.654Z,2.84
2023-04-16T09:01:46.576Z,2.66
2023-04-16T09:02:48.664Z,4.05
2023-04-16T09:03:50.741Z,4.68
2023-04-16T09:04:52.783Z,3.33
2023-04-16T09:05:54.739Z,3.89
2023-04-16T09:06:56.713Z,5.11
2023-04-16T09:07:58.529Z,7.37
2023-04-16T09:09:00.343Z,4.69
2023-04-16T09:10:02.168Z,4.08
2023-04-16T09:11:03.955Z,3.99
2023-04-16T09:12:05.770Z,2.92
2023-04-16T09:13:07.590Z,3.36
2023-04-16T09:14:09.418Z,4.49
2023-04-16T09:15:11.214Z,4.00
2023-04-16T09:16:13.029Z,3.39
2023-04-16T09:17:14.782Z,4.39
2023-04-16T09:18:16.751Z,3.29
2023-04-16T09:19:18.564Z,3.24
2023-04-16T09:20:20.430Z,2.91
2023-04-16T09:21:23.890Z,3.65
2023-04-16T09:22:25.925Z,3.88
2023-04-16T09:23:27.778Z,4.45
2023-04-16T09:24:29.575Z,4.21
2023-04-16T09:25:31.420Z,4.01
2023-04-16T09:26:33.535Z,3.94
2023-04-16T09:27:35.346Z,3.94
2023-04-16T09:28:37.173Z,3.86
2023-04-16T09:29:38.982Z,4.05
2023-04-16T09:30:40.797Z,6.41
2023-04-16T09:31:42.666Z,4.59
2023-04-16T09:32:44.513Z,4.16
2023-04-16T09:33:46.438Z,3.69
2023-04-16T09:34:48.249Z,3.21
2023-04-16T09:35:50.057Z,5.27
2023-04-16T09:36:51.875Z,3.35
2023-04-16T09:37:53.667Z,3.46
2023-04-16T09:38:57.551Z,2.72
2023-04-16T09:39:59.113Z,2.91
2023-04-16T09:41:00.900Z,3.29
2023-04-16T09:42:02.706Z,2.68
2023-04-16T09:43:04.527Z,2.86
2023-04-16T09:44:06.375Z,2.66
2023-04-16T09:45:08.168Z,2.39
2023-04-16T09:46:10.318Z,5.69
2023-04-16T09:47:12.091Z,5.14
2023-04-16T09:48:13.881Z,2.45
2023-04-16T09:49:15.745Z,4.37
2023-04-16T09:50:18.647Z,14.95
2023-04-16T09:51:20.802Z,8.33
2023-04-16T09:52:22.611Z,3.59
2023-04-16T09:53:24.404Z,2.53
2023-04-16T09:54:26.253Z,2.47
2023-04-16T09:55:28.127Z,2.36
2023-04-16T09:56:29.938Z,2.99
2023-04-16T09:57:31.794Z,2.29
2023-04-16T09:58:33.665Z,2.69
2023-04-16T09:59:35.512Z,2.32
2023-04-16T10:00:43.206Z,3.20
2023-04-16T10:01:41.291Z,3.06
2023-04-16T10:02:43.231Z,2.83
2023-04-16T10:03:45.269Z,3.37
2023-04-16T10:04:47.545Z,3.33
2023-04-16T10:05:49.608Z,2.81
2023-04-16T10:06:51.455Z,2.33
2023-04-16T10:07:53.218Z,2.64
2023-04-16T10:08:55.161Z,2.88
2023-04-16T10:09:56.902Z,3.17
2023-04-16T10:10:58.813Z,3.15
2023-04-16T10:12:00.528Z,4.06
2023-04-16T10:13:02.368Z,3.66
2023-04-16T10:14:04.176Z,2.80
2023-04-16T10:15:06.029Z,2.82
2023-04-16T10:16:07.832Z,2.39
2023-04-16T10:17:09.777Z,2.61
2023-04-16T10:18:11.769Z,3.98
2023-04-16T10:19:14.634Z,3.95
2023-04-16T10:20:17.276Z,3.91
2023-04-16T10:21:19.187Z,2.43
2023-04-16T10:22:21.004Z,4.36
2023-04-16T10:23:22.831Z,3.36
2023-04-16T10:24:24.621Z,2.74
2023-04-16T10:25:26.517Z,3.35
2023-04-16T10:26:28.339Z,3.71
2023-04-16T10:27:30.143Z,3.61
2023-04-16T10:28:31.945Z,3.09
2023-04-16T10:29:33.789Z,2.94
2023-04-16T10:30:35.809Z,2.65
2023-04-16T10:31:37.612Z,2.65
2023-04-16T10:32:39.427Z,3.74
2023-04-16T10:33:41.203Z,3.82
2023-04-16T10:34:43.109Z,3.52
2023-04-16T10:35:46.835Z,3.23
2023-04-16T10:36:48.649Z,3.38
2023-04-16T10:37:50.420Z,3.43
2023-04-16T10:38:52.273Z,4.52
2023-04-16T10:39:54.118Z,3.33
2023-04-16T10:40:55.968Z,2.99
2023-04-16T10:41:57.859Z,3.77
2023-04-16T10:42:59.656Z,4.25
2023-04-16T10:44:01.517Z,3.69
2023-04-16T10:45:03.329Z,3.61
2023-04-16T10:46:05.391Z,3.03
2023-04-16T10:47:07.324Z,2.27
2023-04-16T10:48:09.118Z,2.64
2023-04-16T10:49:11.207Z,3.29
2023-04-16T10:50:13.489Z,3.55
2023-04-16T10:51:15.318Z,2.54
2023-04-16T10:52:17.454Z,3.35
2023-04-16T10:53:19.321Z,2.54
2023-04-16T10:54:21.245Z,2.69
2023-04-16T10:55:23.070Z,2.81
2023-04-16T10:56:24.931Z,3.09
2023-04-16T10:57:26.712Z,2.61
2023-04-16T10:58:28.540Z,3.23
2023-04-16T10:59:30.333Z,2.95
2023-04-16T11:00:32.471Z,5.93
2023-04-16T11:01:34.334Z,4.15
2023-04-16T11:02:36.312Z,3.34
2023-04-16T11:03:38.482Z,2.29
2023-04-16T11:04:40.436Z,3.39
2023-04-16T11:05:42.328Z,2.95
2023-04-16T11:06:44.271Z,2.91
2023-04-16T11:07:46.082Z,2.33
2023-04-16T11:08:54.399Z,2.76
2023-04-16T11:09:51.551Z,3.14
2023-04-16T11:10:53.361Z,3.49
2023-04-16T11:11:55.230Z,2.98
2023-04-16T11:12:57.030Z,2.65
2023-04-16T11:13:58.894Z,2.19
2023-04-16T11:15:00.749Z,3.03
2023-04-16T11:16:02.680Z,3.23
2023-04-16T11:17:04.462Z,3.17
2023-04-16T11:18:06.338Z,3.89
2023-04-16T11:19:08.197Z,3.07
2023-04-16T11:20:19.245Z,3.19
2023-04-16T11:21:13.784Z,3.39
2023-04-16T11:22:15.635Z,3.75
2023-04-16T11:23:17.449Z,4.59
2023-04-16T11:24:19.256Z,3.31
2023-04-16T11:25:21.184Z,4.18
2023-04-16T11:26:22.979Z,3.77
2023-04-16T11:27:24.851Z,3.25
2023-04-16T11:28:26.648Z,4.69
2023-04-16T11:29:28.459Z,4.81
2023-04-16T11:30:30.255Z,4.59
2023-04-16T11:31:32.147Z,4.11
2023-04-16T11:32:34.307Z,3.05
2023-04-16T11:33:36.112Z,3.67
2023-04-16T11:34:37.958Z,2.74
2023-04-16T11:35:39.779Z,2.91
2023-04-16T11:36:41.566Z,3.12
2023-04-16T11:37:43.413Z,3.66
2023-04-16T11:38:45.217Z,3.14
2023-04-16T11:39:47.017Z,2.75
2023-04-16T11:40:48.858Z,2.54
2023-04-16T11:41:50.655Z,2.83
2023-04-16T11:42:52.488Z,2.72
2023-04-16T11:43:54.325Z,2.97
2023-04-16T11:44:56.179Z,3.00
2023-04-16T11:45:57.935Z,2.87
2023-04-16T11:46:59.780Z,2.89
2023-04-16T11:48:01.567Z,3.11
2023-04-16T11:49:03.394Z,3.61
2023-04-16T11:50:05.308Z,3.33
2023-04-16T11:51:07.114Z,3.57
2023-04-16T11:52:08.808Z,2.38
2023-04-16T11:53:10.647Z,2.39
2023-04-16T11:54:12.457Z,2.31
2023-04-16T11:55:14.274Z,2.29
2023-04-16T11:56:17.110Z,2.26
2023-04-16T11:57:18.898Z,2.57
2023-04-16T11:58:20.741Z,2.80
2023-04-16T11:59:24.357Z,2.62
2023-04-16T12:00:26.174Z,2.13
2023-04-16T12:01:27.998Z,2.94
2023-04-16T12:02:29.899Z,2.76
2023-04-16T12:03:31.912Z,3.04
2023-04-16T12:04:34.059Z,2.44
2023-04-16T12:05:36.048Z,2.14
2023-04-16T12:06:37.863Z,2.15
2023-04-16T12:07:39.678Z,2.28
2023-04-16T12:08:41.515Z,3.04
2023-04-16T12:09:43.329Z,3.19
2023-04-16T12:10:45.138Z,2.64
2023-04-16T12:11:46.951Z,2.61
2023-04-16T12:12:48.758Z,2.84
2023-04-16T12:13:50.588Z,3.65
2023-04-16T12:14:52.382Z,3.18
2023-04-16T12:15:54.184Z,3.46
2023-04-16T12:16:56.020Z,4.36
2023-04-16T12:17:57.910Z,3.16
2023-04-16T12:18:59.746Z,2.71
2023-04-16T12:20:01.547Z,3.32
2023-04-16T12:21:03.356Z,4.39
2023-04-16T12:22:05.169Z,4.30
2023-04-16T12:23:06.967Z,4.84
2023-04-16T12:24:08.800Z,4.43
2023-04-16T12:25:10.636Z,2.59
2023-04-16T12:26:12.923Z,2.17
2023-04-16T12:27:14.830Z,2.22
2023-04-16T12:28:16.636Z,2.58
2023-04-16T12:29:18.396Z,2.35
2023-04-16T12:30:20.220Z,2.01
2023-04-16T12:31:22.093Z,2.07
2023-04-16T12:32:23.961Z,2.19
2023-04-16T12:33:25.757Z,2.29
2023-04-16T12:34:48.500Z,2.89
2023-04-16T12:35:31.266Z,2.66
2023-04-16T12:36:33.068Z,2.61
2023-04-16T12:37:34.860Z,3.15
2023-04-16T12:38:36.677Z,3.07
2023-04-16T12:39:38.547Z,3.07
2023-04-16T12:40:40.632Z,4.91
2023-04-16T12:41:42.443Z,2.90
2023-04-16T12:42:44.253Z,2.05
2023-04-16T12:43:45.962Z,2.56
2023-04-16T12:44:47.805Z,2.94
2023-04-16T12:45:49.572Z,3.13
2023-04-16T12:46:51.493Z,4.93
2023-04-16T12:47:53.420Z,5.37
2023-04-16T12:48:55.166Z,2.92
2023-04-16T12:49:57.016Z,2.11
2023-04-16T12:50:58.903Z,2.61
2023-04-16T12:52:00.714Z,3.29
2023-04-16T12:53:02.532Z,3.54
2023-04-16T12:54:04.333Z,4.05
2023-04-16T12:55:06.177Z,3.42
2023-04-16T12:56:08.329Z,2.99
2023-04-16T12:57:10.107Z,2.91
2023-04-16T12:58:12.690Z,3.09
2023-04-16T12:59:14.593Z,3.23
2023-04-16T13:00:16.552Z,3.43
2023-04-16T13:01:18.390Z,2.79
2023-04-16T13:02:20.300Z,2.95
2023-04-16T13:03:22.448Z,2.99
2023-04-16T13:04:25.966Z,3.10
2023-04-16T13:05:28.065Z,2.63
2023-04-16T13:06:29.865Z,2.69
2023-04-16T13:07:31.679Z,3.37
2023-04-16T13:08:33.494Z,3.14
2023-04-16T13:09:36.170Z,3.13
2023-04-16T13:10:38.556Z,2.81
2023-04-16T13:11:40.374Z,2.87
2023-04-16T13:12:42.189Z,2.67
2023-04-16T13:13:44.016Z,3.17
2023-04-16T13:14:45.800Z,2.74
2023-04-16T13:15:47.629Z,2.99
2023-04-16T13:16:49.520Z,2.33
2023-04-16T13:17:51.398Z,2.67
2023-04-16T13:18:53.191Z,2.73
2023-04-16T13:19:55.006Z,2.89
2023-04-16T13:20:57.039Z,3.16
2023-04-16T13:21:58.787Z,2.63
2023-04-16T13:23:00.605Z,2.89
2023-04-16T13:24:02.428Z,2.65
2023-04-16T13:25:04.248Z,3.84
2023-04-16T13:26:06.397Z,3.49
2023-04-16T13:27:08.255Z,3.17
2023-04-16T13:28:10.093Z,3.49
2023-04-16T13:29:12.176Z,3.23
2023-04-16T13:30:14.222Z,2.70
2023-04-16T13:31:16.095Z,2.24
2023-04-16T13:32:17.931Z,2.76
2023-04-16T13:33:19.714Z,3.19
2023-04-16T13:34:21.521Z,3.27
2023-04-16T13:35:23.351Z,3.06
2023-04-16T13:36:27.434Z,3.14
2023-04-16T13:37:28.692Z,3.79
2023-04-16T13:38:30.511Z,3.13
2023-04-16T13:39:32.316Z,3.22
2023-04-16T13:40:34.125Z,2.57
2023-04-16T13:41:35.973Z,2.79
2023-04-16T13:42:37.773Z,3.32
2023-04-16T13:43:39.585Z,5.15